sensor_id;sensor_type;location;lat;lon;timestamp;P1;durP1;ratioP1;P2;durP2;ratioP2
18576;SDS011;9418;52.694;13.294;2023-05-23T00:01:34;4.40;;;4.00;;
18576;SDS011;9418;52.694;13.294;2023-05-23T00:04:01;4.87;;;4.37;;
18576;SDS011;9418;52.694;13.294;2023-05-23T00:06:29;5.63;;;4.27;;
18576;SDS011;9418;52.694;13.294;2023-05-23T00:08:56;6.13;;;4.43;;
18576;SDS011;9418;52.694;13.294;2023-05-23T00:11:22;6.20;;;4.23;;
18576;SDS011;9418;52.694;13.294;2023-05-23T00:13:51;10.13;;;3.97;;
18576;SDS011;9418;52.694;13.294;2023-05-23T00:16:17;4.23;;;3.83;;
18576;SDS011;9418;52.694;13.294;2023-05-23T00:18:45;3.80;;;3.60;;
18576;SDS011;9418;52.694;13.294;2023-05-23T00:21:12;5.37;;;3.77;;
18576;SDS011;9418;52.694;13.294;2023-05-23T00:23:39;6.40;;;4.23;;
18576;SDS011;9418;52.694;13.294;2023-05-23T00:26:07;6.37;;;4.27;;
18576;SDS011;9418;52.694;13.294;2023-05-23T00:28:33;4.13;;;3.73;;
18576;SDS011;9418;52.694;13.294;2023-05-23T00:31:00;7.37;;;4.90;;
18576;SDS011;9418;52.694;13.294;2023-05-23T00:33:26;5.67;;;4.27;;
18576;SDS011;9418;52.694;13.294;2023-05-23T00:35:53;3.90;;;3.60;;
18576;SDS011;9418;52.694;13.294;2023-05-23T00:38:20;3.90;;;3.60;;
18576;SDS011;9418;52.694;13.294;2023-05-23T00:40:48;9.53;;;3.97;;
18576;SDS011;9418;52.694;13.294;2023-05-23T00:43:14;10.43;;;3.90;;
18576;SDS011;9418;52.694;13.294;2023-05-23T00:45:41;8.53;;;3.70;;
18576;SDS011;9418;52.694;13.294;2023-05-23T00:48:07;4.60;;;3.93;;
18576;SDS011;9418;52.694;13.294;2023-05-23T00:50:34;3.87;;;3.57;;
18576;SDS011;9418;52.694;13.294;2023-05-23T00:53:00;4.83;;;4.10;;
18576;SDS011;9418;52.694;13.294;2023-05-23T00:55:27;4.83;;;4.20;;
18576;SDS011;9418;52.694;13.294;2023-05-23T00:57:55;5.40;;;4.73;;
18576;SDS011;9418;52.694;13.294;2023-05-23T01:00:22;5.77;;;4.30;;
18576;SDS011;9418;52.694;13.294;2023-05-23T01:02:49;6.27;;;3.80;;
18576;SDS011;9418;52.694;13.294;2023-05-23T01:05:17;4.23;;;3.90;;
18576;SDS011;9418;52.694;13.294;2023-05-23T01:07:46;4.60;;;4.30;;
18576;SDS011;9418;52.694;13.294;2023-05-23T01:10:13;6.87;;;4.30;;
18576;SDS011;9418;52.694;13.294;2023-05-23T01:12:44;5.70;;;4.00;;
18576;SDS011;9418;52.694;13.294;2023-05-23T01:15:17;4.47;;;3.90;;
18576;SDS011;9418;52.694;13.294;2023-05-23T01:17:54;6.50;;;3.80;;
18576;SDS011;9418;52.694;13.294;2023-05-23T01:20:27;5.13;;;4.73;;
18576;SDS011;9418;52.694;13.294;2023-05-23T01:22:59;4.50;;;4.03;;
18576;SDS011;9418;52.694;13.294;2023-05-23T01:25:38;16.03;;;4.03;;
18576;SDS011;9418;52.694;13.294;2023-05-23T01:28:15;4.73;;;4.00;;
18576;SDS011;9418;52.694;13.294;2023-05-23T01:30:43;4.07;;;3.77;;
18576;SDS011;9418;52.694;13.294;2023-05-23T01:33:13;7.90;;;4.40;;
18576;SDS011;9418;52.694;13.294;2023-05-23T01:35:41;4.83;;;4.03;;
18576;SDS011;9418;52.694;13.294;2023-05-23T01:38:08;13.23;;;4.30;;
18576;SDS011;9418;52.694;13.294;2023-05-23T01:40:35;9.40;;;4.63;;
18576;SDS011;9418;52.694;13.294;2023-05-23T01:43:01;5.00;;;4.57;;
18576;SDS011;9418;52.694;13.294;2023-05-23T01:45:29;4.80;;;4.30;;
18576;SDS011;9418;52.694;13.294;2023-05-23T01:47:56;7.53;;;4.30;;
18576;SDS011;9418;52.694;13.294;2023-05-23T01:50:24;4.57;;;4.17;;
18576;SDS011;9418;52.694;13.294;2023-05-23T01:52:51;6.97;;;4.63;;
18576;SDS011;9418;52.694;13.294;2023-05-23T01:55:20;8.87;;;4.50;;
18576;SDS011;9418;52.694;13.294;2023-05-23T01:57:48;4.77;;;4.17;;
18576;SDS011;9418;52.694;13.294;2023-05-23T02:00:16;4.53;;;3.97;;
18576;SDS011;9418;52.694;13.294;2023-05-23T02:02:45;4.43;;;4.03;;
18576;SDS011;9418;52.694;13.294;2023-05-23T02:05:12;5.17;;;4.30;;
18576;SDS011;9418;52.694;13.294;2023-05-23T02:07:38;4.57;;;4.03;;
18576;SDS011;9418;52.694;13.294;2023-05-23T02:10:06;3.83;;;3.50;;
18576;SDS011;9418;52.694;13.294;2023-05-23T02:12:34;6.13;;;4.77;;
18576;SDS011;9418;52.694;13.294;2023-05-23T02:15:01;5.40;;;4.10;;
18576;SDS011;9418;52.694;13.294;2023-05-23T02:17:28;25.97;;;4.73;;
18576;SDS011;9418;52.694;13.294;2023-05-23T02:19:56;4.43;;;4.03;;
18576;SDS011;9418;52.694;13.294;2023-05-23T02:22:22;6.80;;;4.80;;
18576;SDS011;9418;52.694;13.294;2023-05-23T02:24:49;7.23;;;4.30;;
18576;SDS011;9418;52.694;13.294;2023-05-23T02:27:16;4.77;;;4.37;;
18576;SDS011;9418;52.694;13.294;2023-05-23T02:29:42;5.07;;;4.30;;
18576;SDS011;9418;52.694;13.294;2023-05-23T02:32:09;6.10;;;4.33;;
18576;SDS011;9418;52.694;13.294;2023-05-23T02:34:36;9.50;;;3.67;;
18576;SDS011;9418;52.694;13.294;2023-05-23T02:37:04;4.93;;;4.20;;
18576;SDS011;9418;52.694;13.294;2023-05-23T02:39:31;4.83;;;4.20;;
18576;SDS011;9418;52.694;13.294;2023-05-23T02:41:57;4.57;;;4.17;;
18576;SDS011;9418;52.694;13.294;2023-05-23T02:44:24;6.87;;;4.20;;
18576;SDS011;9418;52.694;13.294;2023-05-23T02:46:51;5.10;;;4.60;;
18576;SDS011;9418;52.694;13.294;2023-05-23T02:49:17;4.60;;;4.03;;
18576;SDS011;9418;52.694;13.294;2023-05-23T02:51:44;6.37;;;4.67;;
18576;SDS011;9418;52.694;13.294;2023-05-23T02:54:11;7.57;;;4.73;;
18576;SDS011;9418;52.694;13.294;2023-05-23T02:56:38;11.30;;;4.63;;
18576;SDS011;9418;52.694;13.294;2023-05-23T02:59:04;5.20;;;4.70;;
18576;SDS011;9418;52.694;13.294;2023-05-23T03:01:31;4.30;;;4.00;;
18576;SDS011;9418;52.694;13.294;2023-05-23T03:03:59;4.80;;;4.43;;
18576;SDS011;9418;52.694;13.294;2023-05-23T03:06:25;5.10;;;4.60;;
18576;SDS011;9418;52.694;13.294;2023-05-23T03:08:52;5.53;;;4.37;;
18576;SDS011;9418;52.694;13.294;2023-05-23T03:11:19;4.60;;;4.17;;
18576;SDS011;9418;52.694;13.294;2023-05-23T03:13:46;6.47;;;5.30;;
18576;SDS011;9418;52.694;13.294;2023-05-23T03:16:13;6.27;;;4.83;;
18576;SDS011;9418;52.694;13.294;2023-05-23T03:18:40;8.53;;;4.77;;
18576;SDS011;9418;52.694;13.294;2023-05-23T03:21:06;6.17;;;4.27;;
18576;SDS011;9418;52.694;13.294;2023-05-23T03:23:33;4.90;;;4.50;;
18576;SDS011;9418;52.694;13.294;2023-05-23T03:26:00;10.77;;;4.87;;
18576;SDS011;9418;52.694;13.294;2023-05-23T03:28:28;5.20;;;4.70;;
18576;SDS011;9418;52.694;13.294;2023-05-23T03:30:56;5.33;;;4.70;;
18576;SDS011;9418;52.694;13.294;2023-05-23T03:33:22;10.73;;;4.70;;
18576;SDS011;9418;52.694;13.294;2023-05-23T03:35:49;4.77;;;4.37;;
18576;SDS011;9418;52.694;13.294;2023-05-23T03:38:16;5.63;;;4.60;;
18576;SDS011;9418;52.694;13.294;2023-05-23T03:40:43;7.83;;;4.93;;
18576;SDS011;9418;52.694;13.294;2023-05-23T03:43:09;5.37;;;4.97;;
18576;SDS011;9418;52.694;13.294;2023-05-23T03:45:37;5.57;;;5.07;;
18576;SDS011;9418;52.694;13.294;2023-05-23T03:48:04;5.60;;;5.03;;
18576;SDS011;9418;52.694;13.294;2023-05-23T03:50:31;7.10;;;5.53;;
18576;SDS011;9418;52.694;13.294;2023-05-23T03:52:57;7.60;;;5.17;;
18576;SDS011;9418;52.694;13.294;2023-05-23T03:55:24;6.63;;;5.00;;
18576;SDS011;9418;52.694;13.294;2023-05-23T03:57:50;5.30;;;4.80;;
18576;SDS011;9418;52.694;13.294;2023-05-23T04:00:17;7.33;;;4.63;;
18576;SDS011;9418;52.694;13.294;2023-05-23T04:02:45;7.20;;;6.10;;
18576;SDS011;9418;52.694;13.294;2023-05-23T04:05:12;7.60;;;6.57;;
18576;SDS011;9418;52.694;13.294;2023-05-23T04:07:38;12.20;;;5.30;;
18576;SDS011;9418;52.694;13.294;2023-05-23T04:10:07;5.97;;;5.40;;
18576;SDS011;9418;52.694;13.294;2023-05-23T04:12:34;6.90;;;5.03;;
18576;SDS011;9418;52.694;13.294;2023-05-23T04:15:01;8.23;;;5.07;;
18576;SDS011;9418;52.694;13.294;2023-05-23T04:17:27;5.80;;;5.30;;
18576;SDS011;9418;52.694;13.294;2023-05-23T04:19:56;8.33;;;5.00;;
18576;SDS011;9418;52.694;13.294;2023-05-23T04:22:23;7.37;;;4.47;;
18576;SDS011;9418;52.694;13.294;2023-05-23T04:24:49;5.27;;;4.77;;
18576;SDS011;9418;52.694;13.294;2023-05-23T04:27:16;6.63;;;5.07;;
18576;SDS011;9418;52.694;13.294;2023-05-23T04:29:43;10.40;;;5.37;;
18576;SDS011;9418;52.694;13.294;2023-05-23T04:32:10;6.47;;;4.97;;
18576;SDS011;9418;52.694;13.294;2023-05-23T04:34:37;5.77;;;5.20;;
18576;SDS011;9418;52.694;13.294;2023-05-23T04:37:06;6.17;;;4.50;;
18576;SDS011;9418;52.694;13.294;2023-05-23T04:39:33;5.87;;;5.37;;
18576;SDS011;9418;52.694;13.294;2023-05-23T04:42:00;5.30;;;4.80;;
18576;SDS011;9418;52.694;13.294;2023-05-23T04:44:26;6.20;;;5.60;;
18576;SDS011;9418;52.694;13.294;2023-05-23T04:46:54;7.50;;;5.23;;
18576;SDS011;9418;52.694;13.294;2023-05-23T04:49:21;6.27;;;5.10;;
18576;SDS011;9418;52.694;13.294;2023-05-23T04:51:47;7.00;;;5.57;;
18576;SDS011;9418;52.694;13.294;2023-05-23T04:54:16;4.73;;;4.33;;
18576;SDS011;9418;52.694;13.294;2023-05-23T04:56:43;14.23;;;5.33;;
18576;SDS011;9418;52.694;13.294;2023-05-23T04:59:09;6.53;;;5.93;;
18576;SDS011;9418;52.694;13.294;2023-05-23T05:01:37;8.23;;;5.40;;
18576;SDS011;9418;52.694;13.294;2023-05-23T05:04:04;9.83;;;5.30;;
18576;SDS011;9418;52.694;13.294;2023-05-23T05:06:31;5.73;;;4.70;;
18576;SDS011;9418;52.694;13.294;2023-05-23T05:08:57;7.60;;;5.17;;
18576;SDS011;9418;52.694;13.294;2023-05-23T05:11:25;6.33;;;4.53;;
18576;SDS011;9418;52.694;13.294;2023-05-23T05:13:52;6.13;;;5.57;;
18576;SDS011;9418;52.694;13.294;2023-05-23T05:16:19;10.40;;;5.50;;
18576;SDS011;9418;52.694;13.294;2023-05-23T05:18:45;8.23;;;5.53;;
18576;SDS011;9418;52.694;13.294;2023-05-23T05:21:12;6.20;;;5.43;;
18576;SDS011;9418;52.694;13.294;2023-05-23T05:23:38;6.90;;;5.43;;
18576;SDS011;9418;52.694;13.294;2023-05-23T05:26:05;8.50;;;5.40;;
18576;SDS011;9418;52.694;13.294;2023-05-23T05:28:33;11.20;;;4.80;;
18576;SDS011;9418;52.694;13.294;2023-05-23T05:31:00;6.30;;;5.70;;
18576;SDS011;9418;52.694;13.294;2023-05-23T05:33:28;18.17;;;5.20;;
18576;SDS011;9418;52.694;13.294;2023-05-23T05:35:59;9.67;;;5.23;;
18576;SDS011;9418;52.694;13.294;2023-05-23T05:38:26;6.87;;;5.80;;
18576;SDS011;9418;52.694;13.294;2023-05-23T05:40:53;5.80;;;5.27;;
18576;SDS011;9418;52.694;13.294;2023-05-23T05:43:19;8.47;;;5.57;;
18576;SDS011;9418;52.694;13.294;2023-05-23T05:45:47;17.40;;;4.87;;
18576;SDS011;9418;52.694;13.294;2023-05-23T05:48:14;9.27;;;5.13;;
18576;SDS011;9418;52.694;13.294;2023-05-23T05:50:41;8.00;;;6.17;;
18576;SDS011;9418;52.694;13.294;2023-05-23T05:53:09;6.33;;;5.60;;
18576;SDS011;9418;52.694;13.294;2023-05-23T05:55:36;13.43;;;5.67;;
18576;SDS011;9418;52.694;13.294;2023-05-23T05:58:03;20.77;;;5.50;;
18576;SDS011;9418;52.694;13.294;2023-05-23T06:00:29;9.77;;;5.53;;
18576;SDS011;9418;52.694;13.294;2023-05-23T06:02:57;15.40;;;6.93;;
18576;SDS011;9418;52.694;13.294;2023-05-23T06:05:24;10.10;;;6.30;;
18576;SDS011;9418;52.694;13.294;2023-05-23T06:07:51;13.40;;;5.63;;
18576;SDS011;9418;52.694;13.294;2023-05-23T06:10:18;10.17;;;5.60;;
18576;SDS011;9418;52.694;13.294;2023-05-23T06:12:44;11.87;;;6.13;;
18576;SDS011;9418;52.694;13.294;2023-05-23T06:15:11;9.70;;;5.73;;
18576;SDS011;9418;52.694;13.294;2023-05-23T06:17:38;5.83;;;5.20;;
18576;SDS011;9418;52.694;13.294;2023-05-23T06:20:06;6.90;;;5.40;;
18576;SDS011;9418;52.694;13.294;2023-05-23T06:22:33;10.13;;;7.50;;
18576;SDS011;9418;52.694;13.294;2023-05-23T06:25:00;7.93;;;5.50;;
18576;SDS011;9418;52.694;13.294;2023-05-23T06:27:27;6.33;;;5.83;;
18576;SDS011;9418;52.694;13.294;2023-05-23T06:29:53;12.90;;;6.10;;
18576;SDS011;9418;52.694;13.294;2023-05-23T06:32:20;7.40;;;5.50;;
18576;SDS011;9418;52.694;13.294;2023-05-23T06:34:46;11.00;;;6.60;;
18576;SDS011;9418;52.694;13.294;2023-05-23T06:37:14;6.40;;;5.80;;
18576;SDS011;9418;52.694;13.294;2023-05-23T06:39:41;9.43;;;6.13;;
18576;SDS011;9418;52.694;13.294;2023-05-23T06:42:08;6.90;;;5.70;;
18576;SDS011;9418;52.694;13.294;2023-05-23T06:44:35;6.83;;;6.10;;
18576;SDS011;9418;52.694;13.294;2023-05-23T06:47:01;7.63;;;6.10;;
18576;SDS011;9418;52.694;13.294;2023-05-23T06:49:28;6.70;;;5.73;;
18576;SDS011;9418;52.694;13.294;2023-05-23T06:51:54;14.27;;;5.87;;
18576;SDS011;9418;52.694;13.294;2023-05-23T06:54:22;13.03;;;6.60;;
18576;SDS011;9418;52.694;13.294;2023-05-23T06:56:49;16.00;;;6.13;;
18576;SDS011;9418;52.694;13.294;2023-05-23T06:59:16;10.73;;;5.93;;
18576;SDS011;9418;52.694;13.294;2023-05-23T07:01:42;10.57;;;7.23;;
18576;SDS011;9418;52.694;13.294;2023-05-23T07:04:09;13.13;;;6.23;;
18576;SDS011;9418;52.694;13.294;2023-05-23T07:06:36;8.73;;;6.40;;
18576;SDS011;9418;52.694;13.294;2023-05-23T07:09:04;8.47;;;6.13;;
18576;SDS011;9418;52.694;13.294;2023-05-23T07:11:32;9.80;;;6.33;;
18576;SDS011;9418;52.694;13.294;2023-05-23T07:13:59;19.43;;;6.60;;
18576;SDS011;9418;52.694;13.294;2023-05-23T07:16:25;10.77;;;6.87;;
18576;SDS011;9418;52.694;13.294;2023-05-23T07:18:52;8.07;;;6.20;;
18576;SDS011;9418;52.694;13.294;2023-05-23T07:21:18;13.87;;;5.97;;
18576;SDS011;9418;52.694;13.294;2023-05-23T07:23:45;7.60;;;6.47;;
18576;SDS011;9418;52.694;13.294;2023-05-23T07:26:12;17.40;;;6.70;;
18576;SDS011;9418;52.694;13.294;2023-05-23T07:28:39;14.53;;;6.40;;
18576;SDS011;9418;52.694;13.294;2023-05-23T07:31:06;22.73;;;6.87;;
18576;SDS011;9418;52.694;13.294;2023-05-23T07:33:33;16.13;;;6.63;;
18576;SDS011;9418;52.694;13.294;2023-05-23T07:35:59;17.17;;;7.23;;
18576;SDS011;9418;52.694;13.294;2023-05-23T07:38:26;12.23;;;6.13;;
18576;SDS011;9418;52.694;13.294;2023-05-23T07:40:53;14.53;;;7.87;;
18576;SDS011;9418;52.694;13.294;2023-05-23T07:43:19;17.77;;;6.83;;
18576;SDS011;9418;52.694;13.294;2023-05-23T07:45:47;10.97;;;6.53;;
18576;SDS011;9418;52.694;13.294;2023-05-23T07:48:14;19.00;;;7.67;;
18576;SDS011;9418;52.694;13.294;2023-05-23T07:50:41;17.13;;;7.63;;
18576;SDS011;9418;52.694;13.294;2023-05-23T07:53:07;18.53;;;6.10;;
18576;SDS011;9418;52.694;13.294;2023-05-23T07:55:34;16.00;;;6.27;;
18576;SDS011;9418;52.694;13.294;2023-05-23T07:58:00;13.40;;;6.60;;
18576;SDS011;9418;52.694;13.294;2023-05-23T08:00:27;14.40;;;6.53;;
18576;SDS011;9418;52.694;13.294;2023-05-23T08:02:55;14.23;;;6.10;;
18576;SDS011;9418;52.694;13.294;2023-05-23T08:05:21;12.27;;;6.40;;
18576;SDS011;9418;52.694;13.294;2023-05-23T08:07:48;9.53;;;6.60;;
18576;SDS011;9418;52.694;13.294;2023-05-23T08:10:14;13.60;;;6.87;;
18576;SDS011;9418;52.694;13.294;2023-05-23T08:12:41;6.20;;;5.60;;
18576;SDS011;9418;52.694;13.294;2023-05-23T08:15:08;18.90;;;6.80;;
18576;SDS011;9418;52.694;13.294;2023-05-23T08:17:35;16.90;;;6.50;;
18576;SDS011;9418;52.694;13.294;2023-05-23T08:20:03;11.00;;;6.80;;
18576;SDS011;9418;52.694;13.294;2023-05-23T08:22:31;6.50;;;5.90;;
18576;SDS011;9418;52.694;13.294;2023-05-23T08:24:57;16.53;;;6.93;;
18576;SDS011;9418;52.694;13.294;2023-05-23T08:27:24;8.20;;;6.30;;
18576;SDS011;9418;52.694;13.294;2023-05-23T08:29:50;7.87;;;6.10;;
18576;SDS011;9418;52.694;13.294;2023-05-23T08:32:17;9.00;;;6.43;;
18576;SDS011;9418;52.694;13.294;2023-05-23T08:34:44;15.40;;;6.63;;
18576;SDS011;9418;52.694;13.294;2023-05-23T08:37:12;6.90;;;6.20;;
18576;SDS011;9418;52.694;13.294;2023-05-23T08:39:38;6.87;;;5.80;;
18576;SDS011;9418;52.694;13.294;2023-05-23T08:42:05;15.07;;;6.47;;
18576;SDS011;9418;52.694;13.294;2023-05-23T08:44:32;13.00;;;7.20;;
18576;SDS011;9418;52.694;13.294;2023-05-23T08:47:00;11.60;;;7.40;;
18576;SDS011;9418;52.694;13.294;2023-05-23T08:49:30;10.73;;;6.17;;
18576;SDS011;9418;52.694;13.294;2023-05-23T08:51:58;8.80;;;6.30;;
18576;SDS011;9418;52.694;13.294;2023-05-23T08:54:28;10.67;;;6.30;;
18576;SDS011;9418;52.694;13.294;2023-05-23T08:56:56;26.77;;;6.63;;
18576;SDS011;9418;52.694;13.294;2023-05-23T08:59:24;6.90;;;5.87;;
18576;SDS011;9418;52.694;13.294;2023-05-23T09:01:52;6.90;;;6.20;;
18576;SDS011;9418;52.694;13.294;2023-05-23T09:04:21;6.90;;;6.30;;
18576;SDS011;9418;52.694;13.294;2023-05-23T09:06:47;13.70;;;5.73;;
18576;SDS011;9418;52.694;13.294;2023-05-23T09:09:14;7.50;;;6.60;;
18576;SDS011;9418;52.694;13.294;2023-05-23T09:11:42;7.70;;;6.20;;
18576;SDS011;9418;52.694;13.294;2023-05-23T09:14:09;8.40;;;6.73;;
18576;SDS011;9418;52.694;13.294;2023-05-23T09:16:38;15.03;;;5.63;;
18576;SDS011;9418;52.694;13.294;2023-05-23T09:19:11;8.00;;;6.67;;
18576;SDS011;9418;52.694;13.294;2023-05-23T09:21:41;12.40;;;6.60;;
18576;SDS011;9418;52.694;13.294;2023-05-23T09:24:08;13.60;;;5.87;;
18576;SDS011;9418;52.694;13.294;2023-05-23T09:26:35;6.97;;;5.30;;
18576;SDS011;9418;52.694;13.294;2023-05-23T09:29:05;6.60;;;5.83;;
18576;SDS011;9418;52.694;13.294;2023-05-23T09:31:32;8.23;;;5.40;;
18576;SDS011;9418;52.694;13.294;2023-05-23T09:33:59;6.40;;;5.70;;
18576;SDS011;9418;52.694;13.294;2023-05-23T09:36:26;6.73;;;6.17;;
18576;SDS011;9418;52.694;13.294;2023-05-23T09:38:54;14.63;;;5.30;;
18576;SDS011;9418;52.694;13.294;2023-05-23T09:41:21;6.10;;;5.60;;
18576;SDS011;9418;52.694;13.294;2023-05-23T09:43:49;9.73;;;6.53;;
18576;SDS011;9418;52.694;13.294;2023-05-23T09:46:18;8.23;;;6.87;;
18576;SDS011;9418;52.694;13.294;2023-05-23T09:48:46;7.60;;;6.33;;
18576;SDS011;9418;52.694;13.294;2023-05-23T09:51:12;7.27;;;6.03;;
18576;SDS011;9418;52.694;13.294;2023-05-23T09:53:39;16.40;;;6.27;;
18576;SDS011;9418;52.694;13.294;2023-05-23T09:56:06;9.43;;;6.80;;
18576;SDS011;9418;52.694;13.294;2023-05-23T09:58:35;9.77;;;5.87;;
18576;SDS011;9418;52.694;13.294;2023-05-23T10:01:03;6.33;;;5.73;;
18576;SDS011;9418;52.694;13.294;2023-05-23T10:03:36;7.07;;;5.90;;
18576;SDS011;9418;52.694;13.294;2023-05-23T10:06:12;11.00;;;5.53;;
18576;SDS011;9418;52.694;13.294;2023-05-23T10:08:43;6.17;;;5.57;;
18576;SDS011;9418;52.694;13.294;2023-05-23T10:14:15;7.50;;;6.00;;
18576;SDS011;9418;52.694;13.294;2023-05-23T10:16:45;10.50;;;5.30;;
18576;SDS011;9418;52.694;13.294;2023-05-23T10:19:22;8.27;;;5.67;;
18576;SDS011;9418;52.694;13.294;2023-05-23T10:21:54;6.90;;;5.87;;
18576;SDS011;9418;52.694;13.294;2023-05-23T10:24:24;13.10;;;6.10;;
18576;SDS011;9418;52.694;13.294;2023-05-23T10:26:51;7.40;;;6.60;;
18576;SDS011;9418;52.694;13.294;2023-05-23T10:29:18;9.73;;;5.53;;
18576;SDS011;9418;52.694;13.294;2023-05-23T10:31:46;6.07;;;5.47;;
18576;SDS011;9418;52.694;13.294;2023-05-23T10:34:14;10.37;;;5.97;;
18576;SDS011;9418;52.694;13.294;2023-05-23T10:36:52;13.23;;;5.07;;
18576;SDS011;9418;52.694;13.294;2023-05-23T10:39:26;6.83;;;5.10;;
18576;SDS011;9418;52.694;13.294;2023-05-23T10:42:07;7.47;;;4.80;;
18576;SDS011;9418;52.694;13.294;2023-05-23T10:44:38;11.73;;;6.37;;
18576;SDS011;9418;52.694;13.294;2023-05-23T10:47:04;7.37;;;5.43;;
18576;SDS011;9418;52.694;13.294;2023-05-23T10:49:38;15.53;;;5.53;;
18576;SDS011;9418;52.694;13.294;2023-05-23T10:52:07;7.00;;;5.13;;
18576;SDS011;9418;52.694;13.294;2023-05-23T10:54:35;7.60;;;5.17;;
18576;SDS011;9418;52.694;13.294;2023-05-23T10:57:02;10.17;;;5.87;;
18576;SDS011;9418;52.694;13.294;2023-05-23T10:59:29;5.83;;;5.33;;
18576;SDS011;9418;52.694;13.294;2023-05-23T11:01:56;8.67;;;5.37;;
18576;SDS011;9418;52.694;13.294;2023-05-23T11:04:24;9.53;;;5.67;;
18576;SDS011;9418;52.694;13.294;2023-05-23T11:06:52;5.73;;;5.30;;
18576;SDS011;9418;52.694;13.294;2023-05-23T11:09:20;5.00;;;4.60;;
18576;SDS011;9418;52.694;13.294;2023-05-23T11:11:50;7.50;;;5.20;;
18576;SDS011;9418;52.694;13.294;2023-05-23T11:14:19;6.03;;;4.83;;
18576;SDS011;9418;52.694;13.294;2023-05-23T11:16:55;7.13;;;5.20;;
18576;SDS011;9418;52.694;13.294;2023-05-23T11:19:23;5.80;;;5.20;;
18576;SDS011;9418;52.694;13.294;2023-05-23T11:21:53;5.87;;;5.37;;
18576;SDS011;9418;52.694;13.294;2023-05-23T11:24:22;5.93;;;5.47;;
18576;SDS011;9418;52.694;13.294;2023-05-23T11:26:53;5.70;;;5.20;;
18576;SDS011;9418;52.694;13.294;2023-05-23T11:29:24;7.10;;;5.77;;
18576;SDS011;9418;52.694;13.294;2023-05-23T11:31:51;13.83;;;5.80;;
18576;SDS011;9418;52.694;13.294;2023-05-23T11:34:17;8.07;;;6.50;;
18576;SDS011;9418;52.694;13.294;2023-05-23T11:36:45;7.93;;;7.00;;
18576;SDS011;9418;52.694;13.294;2023-05-23T11:39:12;8.33;;;7.67;;
18576;SDS011;9418;52.694;13.294;2023-05-23T11:41:41;11.00;;;8.67;;
18576;SDS011;9418;52.694;13.294;2023-05-23T11:44:11;9.23;;;8.23;;
18576;SDS011;9418;52.694;13.294;2023-05-23T11:46:38;10.23;;;9.07;;
18576;SDS011;9418;52.694;13.294;2023-05-23T11:49:09;12.27;;;9.73;;
18576;SDS011;9418;52.694;13.294;2023-05-23T11:51:36;10.97;;;9.60;;
18576;SDS011;9418;52.694;13.294;2023-05-23T11:54:03;11.53;;;10.53;;
18576;SDS011;9418;52.694;13.294;2023-05-23T11:56:30;16.53;;;10.73;;
18576;SDS011;9418;52.694;13.294;2023-05-23T11:59:05;22.07;;;16.10;;
18576;SDS011;9418;52.694;13.294;2023-05-23T12:01:31;19.00;;;15.50;;
18576;SDS011;9418;52.694;13.294;2023-05-23T12:03:58;33.07;;;18.70;;
18576;SDS011;9418;52.694;13.294;2023-05-23T12:06:25;22.40;;;18.67;;
18576;SDS011;9418;52.694;13.294;2023-05-23T12:08:51;35.87;;;21.60;;
18576;SDS011;9418;52.694;13.294;2023-05-23T12:11:18;40.03;;;21.10;;
18576;SDS011;9418;52.694;13.294;2023-05-23T12:13:47;24.53;;;20.60;;
18576;SDS011;9418;52.694;13.294;2023-05-23T12:16:15;26.87;;;21.80;;
18576;SDS011;9418;52.694;13.294;2023-05-23T12:18:42;25.77;;;21.77;;
18576;SDS011;9418;52.694;13.294;2023-05-23T12:21:08;27.57;;;20.30;;
18576;SDS011;9418;52.694;13.294;2023-05-23T12:23:35;27.40;;;22.93;;
18576;SDS011;9418;52.694;13.294;2023-05-23T12:26:03;26.83;;;22.20;;
18576;SDS011;9418;52.694;13.294;2023-05-23T12:28:34;24.43;;;21.27;;
18576;SDS011;9418;52.694;13.294;2023-05-23T12:31:08;29.43;;;23.90;;
18576;SDS011;9418;52.694;13.294;2023-05-23T12:33:38;25.03;;;22.07;;
18576;SDS011;9418;52.694;13.294;2023-05-23T12:36:07;24.27;;;19.93;;
18576;SDS011;9418;52.694;13.294;2023-05-23T12:38:35;21.93;;;19.30;;
18576;SDS011;9418;52.694;13.294;2023-05-23T12:41:07;25.43;;;21.13;;
18576;SDS011;9418;52.694;13.294;2023-05-23T12:43:36;27.30;;;20.03;;
18576;SDS011;9418;52.694;13.294;2023-05-23T12:46:03;26.67;;;21.27;;
18576;SDS011;9418;52.694;13.294;2023-05-23T12:48:30;24.30;;;20.00;;
18576;SDS011;9418;52.694;13.294;2023-05-23T12:50:58;25.73;;;19.43;;
18576;SDS011;9418;52.694;13.294;2023-05-23T12:53:26;23.27;;;19.67;;
18576;SDS011;9418;52.694;13.294;2023-05-23T12:55:53;26.27;;;21.23;;
18576;SDS011;9418;52.694;13.294;2023-05-23T12:58:20;24.53;;;21.30;;
18576;SDS011;9418;52.694;13.294;2023-05-23T13:00:47;24.93;;;19.33;;
18576;SDS011;9418;52.694;13.294;2023-05-23T13:03:14;22.60;;;19.57;;
18576;SDS011;9418;52.694;13.294;2023-05-23T13:05:41;21.27;;;19.00;;
18576;SDS011;9418;52.694;13.294;2023-05-23T13:08:09;28.33;;;19.30;;
18576;SDS011;9418;52.694;13.294;2023-05-23T13:10:36;21.53;;;19.23;;
18576;SDS011;9418;52.694;13.294;2023-05-23T13:13:03;22.80;;;19.80;;
18576;SDS011;9418;52.694;13.294;2023-05-23T13:15:29;22.17;;;18.47;;
18576;SDS011;9418;52.694;13.294;2023-05-23T13:17:56;32.33;;;19.70;;
18576;SDS011;9418;52.694;13.294;2023-05-23T13:20:23;28.60;;;20.73;;
18576;SDS011;9418;52.694;13.294;2023-05-23T13:22:53;22.30;;;19.37;;
18576;SDS011;9418;52.694;13.294;2023-05-23T13:25:21;27.43;;;16.20;;
18576;SDS011;9418;52.694;13.294;2023-05-23T13:27:48;22.30;;;18.70;;
18576;SDS011;9418;52.694;13.294;2023-05-23T13:30:15;27.30;;;19.87;;
18576;SDS011;9418;52.694;13.294;2023-05-23T13:32:41;22.13;;;18.53;;
18576;SDS011;9418;52.694;13.294;2023-05-23T13:35:08;24.63;;;19.87;;
18576;SDS011;9418;52.694;13.294;2023-05-23T13:37:35;25.07;;;20.67;;
18576;SDS011;9418;52.694;13.294;2023-05-23T13:40:02;32.10;;;22.73;;
18576;SDS011;9418;52.694;13.294;2023-05-23T13:42:30;31.50;;;23.93;;
18576;SDS011;9418;52.694;13.294;2023-05-23T13:44:57;29.20;;;22.50;;
18576;SDS011;9418;52.694;13.294;2023-05-23T13:47:24;25.37;;;20.40;;
18576;SDS011;9418;52.694;13.294;2023-05-23T13:49:51;22.50;;;19.00;;
18576;SDS011;9418;52.694;13.294;2023-05-23T13:52:17;24.07;;;18.17;;
18576;SDS011;9418;52.694;13.294;2023-05-23T13:54:44;23.20;;;18.83;;
18576;SDS011;9418;52.694;13.294;2023-05-23T13:57:11;24.33;;;19.50;;
18576;SDS011;9418;52.694;13.294;2023-05-23T13:59:39;20.50;;;17.63;;
18576;SDS011;9418;52.694;13.294;2023-05-23T14:02:05;23.83;;;17.93;;
18576;SDS011;9418;52.694;13.294;2023-05-23T14:04:32;21.20;;;16.63;;
18576;SDS011;9418;52.694;13.294;2023-05-23T14:06:59;18.23;;;15.17;;
18576;SDS011;9418;52.694;13.294;2023-05-23T14:09:25;20.60;;;15.63;;
18576;SDS011;9418;52.694;13.294;2023-05-23T14:11:52;19.80;;;15.80;;
18576;SDS011;9418;52.694;13.294;2023-05-23T14:14:18;20.07;;;15.43;;
18576;SDS011;9418;52.694;13.294;2023-05-23T14:16:48;16.83;;;15.07;;
18576;SDS011;9418;52.694;13.294;2023-05-23T14:19:15;16.30;;;14.20;;
18576;SDS011;9418;52.694;13.294;2023-05-23T14:21:42;20.70;;;16.53;;
18576;SDS011;9418;52.694;13.294;2023-05-23T14:24:09;16.03;;;13.73;;
18576;SDS011;9418;52.694;13.294;2023-05-23T14:26:36;17.70;;;13.40;;
18576;SDS011;9418;52.694;13.294;2023-05-23T14:29:02;17.10;;;13.60;;
18576;SDS011;9418;52.694;13.294;2023-05-23T14:31:30;16.83;;;13.57;;
18576;SDS011;9418;52.694;13.294;2023-05-23T14:33:58;18.77;;;13.10;;
18576;SDS011;9418;52.694;13.294;2023-05-23T14:36:26;14.97;;;13.20;;
18576;SDS011;9418;52.694;13.294;2023-05-23T14:38:53;13.80;;;11.27;;
18576;SDS011;9418;52.694;13.294;2023-05-23T14:41:19;8.90;;;8.20;;
18576;SDS011;9418;52.694;13.294;2023-05-23T14:43:46;6.63;;;6.00;;
18576;SDS011;9418;52.694;13.294;2023-05-23T14:46:15;6.00;;;4.83;;